Stations météo

réclame
Mon MeteoGroup
Zeebrugge, Belgique (6418): Température de l'air & dewpoint: 15.09.2018 10:00:00 - 21.09.2018 10:00:00 (CEST)Zeebrugge, Belgique (6418): Vitesse du vent & gusts: 15.09.2018 10:00:00 - 21.09.2018 10:00:00 (CEST)Zeebrugge, Belgique (6418): Direction du vent: 15.09.2018 10:00:00 - 21.09.2018 10:00:00 (CEST)Zeebrugge, Belgique (6418): reduced air pressure: 15.09.2018 10:00:00 - 21.09.2018 10:00:00 (CEST)Zeebrugge, Belgique (6418): Ensoleillement: 15.09.2018 10:00:00 - 21.09.2018 10:00:00 (CEST)Zeebrugge, Belgique (6418): Quantités de précipitations: 15.09.2018 10:00:00 - 21.09.2018 10:00:00 (CEST)
Date & Time tt [°C] td [°C] ff [km/h] ff [knt] fx [km/h] fx [knt] dd ppp [hPa] sd [min] rr [mm]
21.09.2018 10:00:00 15,5 9,2 40 22 66 36 W 1005,8 28 0,0
21.09.2018 09:00:00 15,8 9,4 39 21 77 41 W 1004,1 11 0,0
21.09.2018 08:00:00 17,3 11,8 54 29 81 44 WSW 1002,9 0 0,8
21.09.2018 07:00:00 17,7 12,9 40 22 77 42 SSW 1001,5 0 0,0
21.09.2018 06:00:00 19,2 13,5 40 22 64 35 S 1000,0 0 0,0
21.09.2018 05:00:00 19,3 13,6 44 24 61 33 S 1000,5 0 0,0
21.09.2018 04:00:00 19,5 13,6 45 25 67 36 S 1001,6 0 0,0
21.09.2018 03:00:00 19,2 13,6 32 17 49 27 S 1003,7 0 0,0
21.09.2018 02:00:00 19,6 13,7 32 18 56 30 S 1005,0 0 0,0
21.09.2018 01:00:00 19,8 13,5 27 15 41 22 SSW 1005,9 0 0,0
21.09.2018 00:00:00 20,6 13,8 31 17 44 24 SSW 1007,0 0 0,0
20.09.2018 23:00:00 20,8 13,9 27 14 36 19 S 1007,4 0 0,0
20.09.2018 22:00:00 21,1 14,0 27 15 37 20 S 1008,6 0 0,0
20.09.2018 21:00:00 21,3 14,4 23 12 30 16 S 1009,3 0 0,0
20.09.2018 20:00:00 21,4 14,8 22 12 26 14 S 1010,3 0 0,0
20.09.2018 19:00:00 20,9 14,7 11 6 22 12 S 1011,1 0 0,0
20.09.2018 18:00:00 21,5 14,4 18 10 35 19 SSW 1012,1 0 0,0
20.09.2018 17:00:00 21,3 14,5 23 13 45 25 SSW 1012,8 4 0,0
20.09.2018 16:00:00 21,5 14,5 34 18 49 26 SSW 1013,2 60 0,0
20.09.2018 15:00:00 20,9 14,7 34 18 51 28 S 1013,8 41 0,0
20.09.2018 14:00:00 20,4 14,8 36 19 50 27 SSW 1014,8 28 0,0
20.09.2018 13:00:00 19,7 15,1 37 20 56 30 SSW 1014,8 60 0,0
20.09.2018 12:00:00 18,9 15,0 36 20 51 27 SSW 1015,3 59 0,0
20.09.2018 11:00:00 18,4 15,4 34 18 47 25 SSW 1015,6 57 0,0
20.09.2018 10:00:00 17,8 15,3 33 18 42 23 SSW 1015,7 52 0,0
20.09.2018 09:00:00 16,9 14,5 26 14 34 19 SSW 1016,0 34 0,0
20.09.2018 08:00:00 16,4 14,0 22 12 35 19 SSW 1015,9 0 0,0
20.09.2018 07:00:00 16,8 14,5 21 12 28 15 S 1015,8 0 0,0
20.09.2018 06:00:00 17,4 15,1 19 11 29 16 S 1016,2 0 0,0
20.09.2018 05:00:00 17,7 15,2 19 10 28 15 SSW 1016,4 0 0,0
20.09.2018 04:00:00 17,7 15,0 21 11 29 16 SSW 1016,6 0 0,0
20.09.2018 03:00:00 18,0 15,1 21 11 28 15 SSW 1016,6 0 0,0
20.09.2018 02:00:00 18,0 14,9 18 10 29 16 S 1016,8 0 0,0
20.09.2018 01:00:00 18,3 14,6 22 12 32 18 SSW 1016,9 0 0,0
20.09.2018 00:00:00 18,5 13,7 24 13 30 16 SSW 1017,3 0 0,0
19.09.2018 23:00:00 19,6 14,1 19 10 30 16 SSW 1017,5 0 0,0
19.09.2018 22:00:00 19,8 13,9 18 10 32 18 SW 1017,3 0 0,0
19.09.2018 21:00:00 20,4 14,0 26 14 37 20 SSW 1016,6 0 0,0
19.09.2018 20:00:00 21,0 14,0 29 16 49 27 SSW 1016,2 27 0,0
19.09.2018 19:00:00 21,6 13,9 34 18 56 30 SSW 1016,1 33 0,0
19.09.2018 18:00:00 21,8 14,0 31 17 52 28 SW 1016,1 9 0,0
19.09.2018 17:00:00 21,9 14,1 32 18 60 32 SW 1016,2 21 0,0
19.09.2018 16:00:00 21,7 14,1 42 23 63 34 SSW 1015,7 18 0,0
19.09.2018 15:00:00 21,4 14,1 42 23 54 29 SSW 1015,6 17 0,0
19.09.2018 14:00:00 21,3 14,3 32 18 58 31 SSW 1015,9 44 0,0
19.09.2018 13:00:00 20,7 14,4 33 18 47 26 SSW 1015,8 58 0,0
19.09.2018 12:00:00 20,0 15,2 29 16 41 22 SSW 1016,3 60 0,0
19.09.2018 11:00:00 18,8 15,9 25 13 37 20 SSW 1016,5 60 0,0
19.09.2018 10:00:00 17,5 15,4 26 14 33 18 SSW 1015,6 60 0,0
19.09.2018 09:00:00 15,9 13,9 24 13 35 19 SSW 1015,4 28 0,0
19.09.2018 08:00:00 15,6 13,3 22 12 30 16 SSW 1015,2 0 0,0
19.09.2018 07:00:00 15,9 13,3 15 8 19 11 S 1014,9 0 0,0
19.09.2018 06:00:00 16,5 13,4 10 5 16 9 S 1015,3 0 0,0
19.09.2018 05:00:00 16,7 13,5 8 4 14 8 SSW 1015,6 0 0,0
19.09.2018 04:00:00 16,6 13,4 11 6 17 9 S 1015,8 0 0,0
19.09.2018 03:00:00 16,8 13,6 13 7 24 13 S 1015,7 0 0,0
19.09.2018 02:00:00 16,7 13,2 18 10 22 12 S 1015,6 0 0,0
19.09.2018 01:00:00 17,3 13,2 15 8 21 11 S 1015,6 0 0,0
19.09.2018 00:00:00 17,4 12,5 14 8 27 14 SSW 1015,3 0 0,0
18.09.2018 23:00:00 18,5 13,5 17 9 29 16 SW 1015,7 0 0,0
18.09.2018 22:00:00 17,9 12,7 15 8 23 13 SSW 1015,7 0 0,0
18.09.2018 21:00:00 18,9 13,5 15 8 42 23 SW 1015,6 0 0,0
18.09.2018 20:00:00 19,1 13,5 32 18 47 25 WSW 1015,1 8 0,0
18.09.2018 19:00:00 20,0 13,5 22 12 46 25 WSW 1014,4 17 0,0
18.09.2018 18:00:00 21,1 13,2 34 18 55 30 SW 1013,6 43 0,0
18.09.2018 17:00:00 21,5 13,1 34 18 61 33 SW 1013,4 60 0,0
18.09.2018 16:00:00 22,2 12,9 37 20 61 33 SW 1013,0 53 0,0
18.09.2018 15:00:00 21,9 14,0 48 26 65 35 SSW 1012,2 52 0,0
18.09.2018 14:00:00 20,7 14,7 29 16 61 33 WSW 1012,2 31 0,0
18.09.2018 13:00:00 21,2 14,6 45 24 63 34 SSW 1011,5 51 0,0
18.09.2018 12:00:00 20,7 15,4 33 18 50 27 SSW 1011,3 30 0,0
18.09.2018 11:00:00 19,6 14,6 34 19 49 26 SSW 1010,8 60 0,0
18.09.2018 10:00:00 18,7 13,1 30 16 39 21 SSW 1010,4 60 0,0
18.09.2018 09:00:00 18,0 11,4 21 11 31 17 SSW 1010,1 60 0,0
18.09.2018 08:00:00 18,3 10,4 25 14 35 19 SSW 1009,8 7 0,0
18.09.2018 07:00:00 19,4 10,0 26 14 39 21 S 1008,8 0 0,0
18.09.2018 06:00:00 19,7 9,4 26 14 37 20 S 1008,6 0 0,0
18.09.2018 05:00:00 19,1 9,0 23 13 34 18 SSE 1009,0 0 0,0
18.09.2018 04:00:00 19,0 8,9 24 13 32 17 SSE 1009,7 0 0,0
18.09.2018 03:00:00 18,5 9,3 23 12 27 15 SSE 1010,3 0 0,0
18.09.2018 02:00:00 18,7 9,3 22 12 29 15 SSE 1010,9 0 0,0
18.09.2018 01:00:00 18,7 9,7 20 11 26 14 SSE 1011,5 0 0,0
18.09.2018 00:00:00 19,0 10,0 17 9 21 11 SE 1012,2 0 0,0
17.09.2018 23:00:00 19,2 11,0 14 8 18 10 SE 1012,8 0 0,0
17.09.2018 22:00:00 19,6 11,9 13 7 15 8 SE 1013,4 0 0,0
17.09.2018 21:00:00 20,3 12,0 12 6 18 10 SE 1013,6 0 0,0
17.09.2018 20:00:00 21,6 11,2 14 8 24 13 SE 1014,0 54 0,0
17.09.2018 19:00:00 23,2 10,6 17 9 23 12 SSE 1014,4 60 0,0
17.09.2018 18:00:00 23,8 9,5 16 9 30 16 S 1014,8 60 0,0
17.09.2018 17:00:00 23,6 9,6 21 12 35 19 S 1015,4 60 0,0
17.09.2018 16:00:00 23,1 9,7 23 12 34 19 S 1016,1 60 0,0
17.09.2018 15:00:00 22,5 10,3 23 13 33 18 S 1017,0 60 0,0
17.09.2018 14:00:00 21,7 10,5 22 12 27 15 S 1017,8 60 0,0
17.09.2018 13:00:00 20,4 11,8 14 8 22 12 S 1018,3 60 0,0
17.09.2018 12:00:00 19,6 11,6 12 6 17 9 SSW 1018,9 60 0,0
17.09.2018 11:00:00 17,7 11,6 10 5 17 9 S 1019,2 60 0,0
17.09.2018 10:00:00 16,2 10,9 15 8 23 12 S 1019,3 60 0,0
17.09.2018 09:00:00 15,2 10,0 16 8 25 13 S 1019,4 60 0,0
17.09.2018 08:00:00 14,9 9,4 14 8 20 11 S 1019,1 1 0,0
17.09.2018 07:00:00 15,3 9,6 15 8 21 11 SSW 1019,0 0 0,0
17.09.2018 06:00:00 15,3 9,5 16 9 29 15 SSW 1018,8 0 0,0
17.09.2018 05:00:00 15,3 9,6 19 11 28 15 SSW 1018,8 0 0,0
17.09.2018 04:00:00 15,4 9,6 19 10 24 13 SSW 1018,9 0 0,0
17.09.2018 03:00:00 15,9 10,0 19 10 26 14 SSW 1018,8 0 0,0
17.09.2018 02:00:00 16,1 9,8 14 8 22 12 SSW 1019,5 0 0,0
17.09.2018 01:00:00 16,5 10,5 14 8 20 11 SSW 1019,5 0 0,0
17.09.2018 00:00:00 17,0 10,9 14 8 21 11 SW 1019,8 0 0,0
16.09.2018 23:00:00 17,7 11,9 13 7 19 10 SSW 1020,0 0 0,0
16.09.2018 22:00:00 18,2 12,3 10 5 14 8 S 1020,0 0 0,0
16.09.2018 21:00:00 18,5 12,6 7 4 12 6 SSW 1019,7 0 0,0
16.09.2018 20:00:00 19,0 12,4 11 6 21 11 SSW 1019,3 53 0,0
16.09.2018 19:00:00 21,0 10,6 16 9 33 18 WSW 1019,4 60 0,0
16.09.2018 18:00:00 21,1 10,9 23 12 34 18 SSW 1019,0 60 0,0
16.09.2018 17:00:00 21,2 10,8 21 11 34 18 SSW 1019,6 34 0,0
16.09.2018 16:00:00 20,6 11,4 20 11 34 19 SSW 1019,9 13 0,0
16.09.2018 15:00:00 20,5 10,7 27 14 34 19 S 1020,1 51 0,0
16.09.2018 14:00:00 19,6 11,1 25 14 37 20 S 1020,6 29 0,0
16.09.2018 13:00:00 19,3 12,1 26 14 37 20 SSW 1021,3 0 0,0
16.09.2018 12:00:00 17,9 11,5 20 11 29 16 S 1021,8 16 0,0
16.09.2018 11:00:00 16,7 11,5 21 12 28 15 S 1021,8 15 0,0
16.09.2018 10:00:00 15,9 11,8 19 11 26 14 S 1021,7 39 0,0
16.09.2018 09:00:00 14,0 10,7 16 9 23 12 S 1022,0 12 0,0
16.09.2018 08:00:00 14,7 11,2 18 10 24 13 S 1022,1 9 0,0
16.09.2018 07:00:00 14,8 11,3 20 11 25 13 S 1021,9 0 0,0
16.09.2018 06:00:00 14,6 11,4 18 10 24 13 S 1022,1 0 0,0
16.09.2018 05:00:00 14,2 11,1 15 8 18 10 S 1022,3 0 0,0
16.09.2018 04:00:00 14,4 11,2 13 7 17 9 S 1022,7 0 0,0
16.09.2018 03:00:00 14,5 10,7 11 6 14 8 S 1023,4 0 0,0
16.09.2018 02:00:00 14,7 10,3 11 6 18 10 S 1024,1 0 0,0
16.09.2018 01:00:00 15,0 10,1 11 6 16 9 S 1024,7 0 0,0
16.09.2018 00:00:00 16,0 10,8 10 5 11 6 S 1025,0 0 0,0
15.09.2018 23:00:00 16,6 11,2 8 5 12 6 S 1025,0 0 0,0
15.09.2018 22:00:00 16,8 11,0 9 5 11 6 S 1025,1 0 0,0
15.09.2018 21:00:00 17,3 10,9 8 4 11 6 SSW 1025,1 0 0,0
15.09.2018 20:00:00 17,6 10,4 7 4 11 6 WSW 1024,5 0 0,0
15.09.2018 19:00:00 17,8 10,4 7 4 18 10 W 1024,4 43 0,0
15.09.2018 18:00:00 18,4 11,2 12 6 22 12 W 1024,5 60 0,0
15.09.2018 17:00:00 18,5 11,9 16 9 25 13 W 1025,1 60 0,0
15.09.2018 16:00:00 18,7 12,0 18 10 27 15 W 1025,2 60 0,0
15.09.2018 15:00:00 18,6 11,9 16 9 26 14 W 1025,3 60 0,0
15.09.2018 14:00:00 18,6 12,5 18 10 29 16 W 1025,2 46 0,0
15.09.2018 13:00:00 18,1 12,7 21 12 29 16 WSW 1025,2 58 0,0
15.09.2018 12:00:00 17,5 13,3 16 9 27 15 WSW 1025,3 54 0,0
15.09.2018 11:00:00 15,7 12,8 13 7 20 11 WSW 1024,6 0 1,0
15.09.2018 10:00:00 15,2 10,9 14 8 20 11 S 1024,2 34 0,0

tt = Température de l'air
td = dewpoint
ff = Vitesse du vent
fx = gusts
dd = Direction du vent
ppp = reduced air pressure
sd = Ensoleillement
rr = Quantités de précipitations

stations d'obs. à proximité